Time;durP1;ratioP1;P1;durP2;ratioP2;P2;SDS_P1;SDS_P2;PMS_P1;PMS_P2;Temp;Humidity;BMP_temperature;BMP_pressure;BME280_temperature;BME280_humidity;BME280_pressure;Samples;Min_cycle;Max_cycle;Signal;HPM_P1;HPM_P2
2022/05/23 00:00:51;;;;;;;43.63;17.30;;;;;;;17.59;83.93;92177.97;5005663;28;20124;-74
2022/05/23 00:03:18;;;;;;;46.53;15.57;;;;;;;17.64;82.34;92176.94;4985266;28;20045;-74
2022/05/23 00:05:44;;;;;;;44.28;18.85;;;;;;;17.65;82.82;92179.25;4979793;28;20109;-74
2022/05/23 00:08:10;;;;;;;35.95;17.30;;;;;;;17.65;82.80;92167.88;4997137;28;20104;-74
2022/05/23 00:10:36;;;;;;;35.70;17.05;;;;;;;17.62;82.92;92160.63;4976744;28;20046;-74
2022/05/23 00:13:02;;;;;;;46.33;18.55;;;;;;;17.65;83.46;92152.78;4994998;28;20169;-74
2022/05/23 00:15:27;;;;;;;37.58;17.63;;;;;;;17.65;83.68;92152.78;4986103;28;20499;-75
2022/05/23 00:17:54;;;;;;;49.15;19.17;;;;;;;17.67;84.24;92145.28;5007318;28;20487;-74
2022/05/23 00:20:22;;;;;;;47.42;18.75;;;;;;;17.65;84.69;92136.91;4994297;28;20030;-74
2022/05/23 00:22:48;;;;;;;45.60;19.33;;;;;;;17.63;85.55;92140.97;5003920;28;20040;-75
2022/05/23 00:25:15;;;;;;;49.00;19.02;;;;;;;17.59;85.37;92138.25;4995386;28;20026;-74
2022/05/23 00:27:42;;;;;;;47.92;17.90;;;;;;;17.57;85.25;92121.94;5001633;28;20034;-74
2022/05/23 00:30:21;;;;;;;44.17;15.15;;;;;;;17.57;83.86;92114.00;5001105;28;20100;-75
2022/05/23 00:35:31;;;;;;;34.05;14.57;;;;;;;17.56;82.46;92106.41;4992461;28;20100;-74
2022/05/23 00:37:57;;;;;;;45.38;15.15;;;;;;;17.56;81.78;92104.53;4999573;28;20123;-75
2022/05/23 00:40:38;;;;;;;43.35;14.52;;;;;;;17.59;81.00;92106.50;4997144;28;20062;-75
2022/05/23 00:43:19;;;;;;;45.45;13.38;;;;;;;17.62;79.37;92120.94;4983820;28;20576;-75
2022/05/23 00:45:52;;;;;;;34.33;13.13;;;;;;;17.66;78.12;92125.22;4980127;28;20037;-74
2022/05/23 00:48:25;;;;;;;41.75;14.98;;;;;;;17.71;79.35;92134.00;4981301;28;20165;-74
2022/05/23 00:50:57;;;;;;;41.63;15.32;;;;;;;17.68;79.89;92125.66;4979946;28;20056;-74
2022/05/23 00:53:26;;;;;;;;;;;;;;;17.73;81.89;92126.50;4999233;28;20034;-74
2022/05/23 00:55:52;;;;;;;41.58;17.50;;;;;;;17.79;82.25;92131.22;4973493;28;19909;-74
2022/05/23 00:58:24;;;;;;;46.45;17.30;;;;;;;17.72;82.86;92127.59;4979038;28;20042;-74
2022/05/23 01:00:51;;;;;;;39.70;17.13;;;;;;;17.65;83.33;92123.69;4977529;28;20036;-74
2022/05/23 01:03:19;;;;;;;37.70;17.52;;;;;;;17.60;83.28;92117.84;4967503;28;20431;-74
2022/05/23 01:05:46;;;;;;;39.30;18.05;;;;;;;17.58;84.04;92120.06;4980238;28;20037;-74
2022/05/23 01:08:15;;;;;;;54.83;17.88;;;;;;;17.56;84.98;92117.78;4979091;28;20034;-75
2022/05/23 01:10:43;;;;;;;46.22;18.27;;;;;;;17.55;84.87;92110.16;4985656;28;20096;-74
2022/05/23 01:13:09;;;;;;;54.28;18.05;;;;;;;17.53;84.78;92107.09;4983864;28;20037;-75
2022/05/23 01:15:35;;;;;;;44.85;19.52;;;;;;;17.53;85.11;92121.06;4979670;28;20048;-75
2022/05/23 01:18:02;;;;;;;48.00;18.45;;;;;;;17.50;85.09;92116.47;4952288;28;20118;-74
2022/05/23 01:20:29;;;;;;;40.45;16.77;;;;;;;17.51;85.14;92115.34;4992063;28;20062;-74
2022/05/23 01:23:01;;;;;;;40.30;16.58;;;;;;;17.48;84.43;92103.56;4980381;28;20070;-75
2022/05/23 01:25:58;;;;;;;42.90;15.05;;;;;;;17.48;83.20;92116.78;4962613;28;20045;-74
2022/05/23 01:28:38;;;;;;;34.50;14.02;;;;;;;17.47;82.30;92125.84;4986380;28;20053;-75
2022/05/23 01:31:06;;;;;;;34.80;14.50;;;;;;;17.44;82.54;92121.22;4979367;28;20120;-74
2022/05/23 01:33:32;;;;;;;42.70;14.65;;;;;;;17.45;82.54;92127.28;5004630;28;20409;-74
2022/05/23 01:35:59;;;;;;;48.47;15.13;;;;;;;17.47;81.89;92130.34;4976440;28;20363;-75
2022/05/23 01:38:27;;;;;;;42.45;13.82;;;;;;;17.45;81.52;92120.13;4989330;28;20120;-74
2022/05/23 01:40:59;;;;;;;39.95;14.30;;;;;;;17.44;81.50;92110.63;4987729;28;20116;-75
2022/05/23 01:43:26;;;;;;;45.85;15.55;;;;;;;17.42;81.40;92081.09;4990682;28;20488;-75
2022/05/23 01:46:21;;;;;;;32.90;14.40;;;;;;;17.74;80.41;92106.84;4981873;28;20038;-75
2022/05/23 01:49:04;;;;;;;35.58;14.55;;;;;;;17.63;81.30;92138.34;4986913;28;20065;-74
2022/05/23 01:51:30;;;;;;;44.47;16.13;;;;;;;17.51;82.63;92139.16;4986376;28;20089;-75
2022/05/23 01:53:55;;;;;;;49.58;15.15;;;;;;;17.46;82.55;92119.00;4969436;28;20041;-75
2022/05/23 01:56:21;;;;;;;42.90;15.95;;;;;;;17.43;82.42;92116.28;5008148;28;20022;-75
2022/05/23 02:01:37;;;;;;;56.22;16.77;;;;;;;17.39;82.59;92133.94;4986369;28;20125;-74
2022/05/23 02:04:03;;;;;;;47.25;16.17;;;;;;;17.39;82.58;92126.00;4991327;28;20064;-75
2022/05/23 02:06:47;;;;;;;49.70;15.13;;;;;;;17.39;83.11;92134.69;4977895;28;20049;-74
2022/05/23 02:09:26;;;;;;;42.88;15.48;;;;;;;17.46;82.77;92129.59;4977193;28;20061;-75
2022/05/23 02:12:24;;;;;;;55.25;16.10;;;;;;;17.39;83.30;92139.22;4968542;28;20046;-75
2022/05/23 02:14:53;;;;;;;41.10;16.30;;;;;;;17.36;83.76;92139.88;4974613;28;20038;-74
2022/05/23 02:17:42;;;;;;;41.78;15.65;;;;;;;17.31;84.01;92148.06;4962743;28;20169;-74
2022/05/23 02:20:09;;;;;;;40.97;15.55;;;;;;;17.27;83.91;92154.03;4982788;28;20536;-74
2022/05/23 02:22:35;;;;;;;48.22;17.27;;;;;;;17.26;84.26;92147.19;4966365;28;20030;-74
2022/05/23 02:25:22;;;;;;;49.85;17.48;;;;;;;17.25;84.43;92142.25;4994943;28;20052;-74
2022/05/23 02:27:48;;;;;;;52.97;17.00;;;;;;;17.21;84.59;92139.50;4976811;28;20472;-74
2022/05/23 02:30:14;;;;;;;57.22;16.83;;;;;;;17.28;84.98;92133.63;4980727;28;20080;-74
2022/05/23 02:32:40;;;;;;;46.85;16.73;;;;;;;17.27;84.73;92122.28;4965122;28;20050;-75
2022/05/23 02:35:09;;;;;;;44.70;16.92;;;;;;;17.24;84.79;92117.66;4983542;28;20034;-74
2022/05/23 02:37:35;;;;;;;53.20;17.83;;;;;;;17.24;84.88;92122.94;4983060;28;20057;-74
2022/05/23 02:40:02;;;;;;;37.75;19.13;;;;;;;17.25;85.01;92113.16;4984420;28;20103;-75
2022/05/23 02:42:30;;;;;;;46.40;18.55;;;;;;;17.26;85.18;92110.16;4988038;28;20079;-74
2022/05/23 02:44:56;;;;;;;42.75;18.92;;;;;;;17.25;85.15;92095.41;4968740;28;20042;-75
2022/05/23 02:47:25;;;;;;;43.00;18.42;;;;;;;17.45;84.78;92087.59;4987473;28;20042;-74
2022/05/23 02:49:53;;;;;;;50.15;20.40;;;;;;;17.36;86.64;92079.03;4992921;28;20129;-74
2022/05/23 02:52:32;;;;;;;46.85;20.38;;;;;;;17.27;88.12;92069.38;4974904;28;20423;-74
2022/05/23 02:55:05;;;;;;;52.42;20.38;;;;;;;17.45;88.95;92093.66;4979479;28;20443;-75
2022/05/23 02:57:31;;;;;;;64.90;22.98;;;;;;;17.28;89.62;92113.22;4981729;28;20052;-75
2022/05/23 02:59:57;;;;;;;54.50;23.23;;;;;;;17.13;92.35;92111.28;4971801;28;20104;-74
2022/05/23 03:05:08;;;;;;;57.00;24.55;;;;;;;16.94;94.22;92103.97;4984238;28;20038;-74
2022/05/23 03:07:34;;;;;;;61.90;25.65;;;;;;;16.90;93.79;92124.25;4985087;28;20053;-74
2022/05/23 03:10:04;;;;;;;58.97;25.10;;;;;;;16.88;93.95;92120.41;4985014;28;20522;-74
2022/05/23 03:12:30;;;;;;;50.78;25.05;;;;;;;16.85;93.96;92114.66;4985071;28;20058;-75
2022/05/23 03:14:57;;;;;;;61.70;25.20;;;;;;;16.88;94.69;92123.03;4982167;28;20038;-74
2022/05/23 03:17:22;;;;;;;52.15;24.65;;;;;;;16.90;94.58;92128.75;4994836;28;20038;-75
2022/05/23 03:19:48;;;;;;;60.67;23.08;;;;;;;16.93;94.65;92122.81;4979273;28;20412;-74
2022/05/23 03:27:46;;;;;;;63.40;23.08;;;;;;;16.93;93.45;92120.94;4984160;28;20465;-74
2022/05/23 03:30:21;;;;;;;54.25;22.27;;;;;;;16.91;92.99;92123.16;4969216;28;20095;-75
2022/05/23 03:32:52;;;;;;;50.23;21.67;;;;;;;16.92;93.79;92121.28;4986033;28;20041;-75
2022/05/23 03:35:19;;;;;;;54.95;22.52;;;;;;;16.88;94.69;92109.81;4978271;28;20778;-74
2022/05/23 03:37:45;;;;;;;61.72;22.92;;;;;;;16.88;93.88;92109.81;4965348;28;20053;-74
2022/05/23 03:40:11;;;;;;;51.50;20.85;;;;;;;16.87;94.07;92109.06;4986990;28;20100;-74
2022/05/23 03:42:42;;;;;;;51.67;21.50;;;;;;;16.86;93.52;92102.22;4968914;28;20038;-74
2022/05/23 03:45:08;;;;;;;47.97;20.33;;;;;;;16.86;93.22;92094.28;4965165;28;20158;-75
2022/05/23 03:47:41;;;;;;;44.78;20.92;;;;;;;16.85;93.46;92096.16;4984966;28;20065;-74
2022/05/23 03:50:13;;;;;;;55.88;23.27;;;;;;;16.87;93.51;92092.44;4973175;28;20076;-75
2022/05/23 03:52:39;;;;;;;45.33;23.10;;;;;;;16.88;93.36;92072.81;4982957;28;20038;-74
2022/05/23 03:55:05;;;;;;;54.25;22.92;;;;;;;16.91;93.70;92077.41;4977140;28;20254;-74
2022/05/23 03:57:31;;;;;;;58.55;24.00;;;;;;;16.90;94.30;92089.13;4982300;28;20044;-75
2022/05/23 03:59:59;;;;;;;56.05;23.92;;;;;;;16.90;94.78;92092.53;4981485;28;20064;-74
2022/05/23 04:02:27;;;;;;;55.13;23.23;;;;;;;16.86;95.08;92086.34;4968694;28;20026;-74
2022/05/23 04:04:53;;;;;;;53.03;23.50;;;;;;;16.82;95.19;92074.94;4989692;28;20458;-75
2022/05/23 04:07:40;;;;;;;58.40;23.65;;;;;;;17.03;94.36;92085.34;4990027;28;20069;-74
2022/05/23 04:10:17;;;;;;;54.00;22.60;;;;;;;16.96;94.48;92085.91;4987435;28;20037;-75
2022/05/23 04:12:44;;;;;;;54.42;23.10;;;;;;;16.87;94.60;92082.63;4977853;28;20080;-75
2022/05/23 04:15:11;;;;;;;49.42;23.00;;;;;;;16.84;94.87;92088.56;4981361;28;20026;-75
2022/05/23 04:17:39;;;;;;;56.33;24.65;;;;;;;16.83;95.04;92082.50;4982206;28;20034;-75
2022/05/23 04:20:05;;;;;;;44.10;22.95;;;;;;;16.85;94.88;92079.53;4967682;28;20495;-75
2022/05/23 04:22:39;;;;;;;53.40;23.00;;;;;;;16.87;94.86;92092.44;4985673;28;20124;-74
2022/05/23 04:25:11;;;;;;;57.15;23.42;;;;;;;16.92;95.15;92097.47;4993608;28;20500;-74
2022/05/23 04:27:37;;;;;;;60.92;22.80;;;;;;;16.94;95.01;92097.91;4958581;28;20038;-74
2022/05/23 04:30:06;;;;;;;49.65;22.63;;;;;;;16.97;94.62;92102.53;4979924;28;20149;-74
2022/05/23 04:35:22;;;;;;;47.20;21.10;;;;;;;17.08;93.45;92103.59;4981598;28;20096;-74
2022/05/23 04:37:51;;;;;;;41.20;21.65;;;;;;;17.12;93.62;92104.47;4978282;28;20050;-74
2022/05/23 04:40:23;;;;;;;54.25;22.33;;;;;;;17.19;93.82;92099.38;4975291;28;20122;-74
2022/05/23 04:42:49;;;;;;;48.80;20.90;;;;;;;17.22;94.45;92101.34;4976066;28;20121;-74
2022/05/23 04:45:15;;;;;;;50.25;21.98;;;;;;;17.31;93.85;92095.16;4972403;28;20138;-75
2022/05/23 04:50:33;;;;;;;41.75;19.85;;;;;;;17.42;93.17;92102.25;4972456;28;20043;-74
2022/05/23 04:53:04;;;;;;;47.42;19.50;;;;;;;17.48;92.30;92094.88;4976071;28;20086;-75
2022/05/23 04:55:35;;;;;;;51.67;20.88;;;;;;;17.53;92.59;92097.25;4975258;28;20049;-75
2022/05/23 04:58:01;;;;;;;49.90;19.95;;;;;;;17.58;92.78;92090.94;4973809;28;20039;-75
2022/05/23 05:00:29;;;;;;;60.40;21.13;;;;;;;17.62;93.02;92095.22;4988249;28;20033;-75
2022/05/23 05:03:01;;;;;;;52.55;20.33;;;;;;;17.65;92.87;92094.56;4977826;28;20038;-74
2022/05/23 05:05:45;;;;;;;49.00;20.15;;;;;;;17.71;92.67;92096.97;4969308;28;20472;-74
2022/05/23 05:08:12;;;;;;;61.33;20.80;;;;;;;17.74;92.39;92096.28;4974591;28;20404;-75
2022/05/23 05:10:40;;;;;;;50.65;20.70;;;;;;;17.77;91.88;92098.25;4971392;28;20481;-75
2022/05/23 05:13:06;;;;;;;45.83;18.10;;;;;;;17.83;91.34;92096.91;4987750;28;20049;-75
2022/05/23 05:15:33;;;;;;;47.47;19.25;;;;;;;17.87;91.01;92082.66;4965255;28;20034;-75
2022/05/23 05:17:59;;;;;;;42.10;19.35;;;;;;;17.95;90.88;92088.16;4989299;28;20056;-74
2022/05/23 05:20:29;;;;;;;50.05;19.65;;;;;;;18.03;90.54;92087.94;4970404;28;20043;-75
2022/05/23 05:22:57;;;;;;;55.75;19.35;;;;;;;18.07;90.33;92083.50;4979553;28;20043;-74
2022/05/23 05:25:25;;;;;;;53.67;20.30;;;;;;;18.13;90.97;92091.22;4987850;28;20035;-74
2022/05/23 05:27:57;;;;;;;58.73;20.10;;;;;;;18.17;90.97;92092.06;4980522;28;20046;-74
2022/05/23 05:30:23;;;;;;;52.97;19.38;;;;;;;18.21;90.75;92101.63;4978171;28;20034;-74
2022/05/23 05:33:08;;;;;;;62.13;20.08;;;;;;;18.24;89.82;92090.34;4974593;28;20042;-74
2022/05/23 05:35:37;;;;;;;64.97;21.65;;;;;;;18.27;89.88;92096.84;4975369;28;20039;-74
2022/05/23 05:38:08;;;;;;;92.75;22.45;;;;;;;18.30;90.18;92101.44;4982437;28;20073;-74
2022/05/23 05:40:35;;;;;;;86.45;22.50;;;;;;;18.35;90.32;92100.41;4975636;28;20396;-76
2022/05/23 05:43:10;;;;;;;92.28;22.00;;;;;;;18.36;90.16;92102.75;4954418;28;20042;-76
2022/05/23 05:46:02;;;;;;;67.60;20.63;;;;;;;18.40;89.89;92102.84;4980948;28;20107;-76
2022/05/23 05:48:47;;;;;;;58.90;19.15;;;;;;;18.43;89.58;92108.19;4981528;28;20072;-76
2022/05/23 05:51:16;;;;;;;63.65;19.75;;;;;;;18.42;89.31;92109.31;4958586;28;20047;-76
2022/05/23 05:54:24;;;;;;;57.25;19.08;;;;;;;18.42;89.07;92113.84;4927009;29;20555;-76
2022/05/23 05:57:02;;;;;;;50.20;17.13;;;;;;;18.42;89.14;92121.81;4927306;29;20427;-75
2022/05/23 05:59:29;;;;;;;37.90;16.05;;;;;;;18.40;88.79;92113.44;4958738;28;20164;-76
2022/05/23 06:01:55;;;;;;;49.95;18.15;;;;;;;18.39;88.14;92120.59;4977679;28;20488;-76
2022/05/23 06:04:24;;;;;;;44.60;19.33;;;;;;;18.38;86.02;92113.75;4974970;28;20046;-75
2022/05/23 06:12:44;;;;;;;56.83;19.33;;;;;;;18.48;87.10;92099.97;4975274;28;20042;-77
2022/05/23 06:15:32;;;;;;;49.15;17.83;;;;;;;18.55;86.73;92103.91;4980724;28;20110;-77
2022/05/23 06:17:59;;;;;;;43.78;19.10;;;;;;;18.58;86.45;92103.25;4958853;28;20054;-77
2022/05/23 06:20:25;;;;;;;45.22;17.90;;;;;;;18.61;86.01;92100.66;4976651;28;20508;-78
2022/05/23 06:22:51;;;;;;;40.85;17.92;;;;;;;18.72;89.15;92085.75;4977054;28;20043;-77
2022/05/23 06:25:17;;;;;;;46.17;17.85;;;;;;;18.69;85.95;92075.09;4981904;28;20038;-77
2022/05/23 06:27:45;;;;;;;48.17;20.45;;;;;;;18.38;88.64;92063.41;4967304;28;20038;-77
2022/05/23 06:30:15;;;;;;;39.75;17.25;;;;;;;18.60;88.66;92055.94;4962334;28;20030;-76
2022/05/23 06:32:46;;;;;;;44.67;17.55;;;;;;;18.50;85.27;92052.69;4976655;28;20357;-74
2022/05/23 06:35:17;;;;;;;41.30;16.60;;;;;;;18.57;86.69;92046.03;4982164;28;20038;-75
2022/05/23 06:37:47;;;;;;;46.58;17.73;;;;;;;18.52;85.98;92039.88;4973506;28;20575;-74
2022/05/23 06:40:31;;;;;;;48.20;19.20;;;;;;;18.51;83.80;92027.75;4979451;28;20110;-75
2022/05/23 06:43:15;;;;;;;42.47;16.38;;;;;;;18.50;83.49;92031.50;4968605;28;20133;-74
2022/05/23 06:46:02;;;;;;;39.45;16.52;;;;;;;18.55;81.85;92037.66;4976531;28;20388;-75
2022/05/23 06:48:42;;;;;;;57.00;18.08;;;;;;;18.59;82.91;92046.44;4967069;28;20407;-75
2022/05/23 06:51:18;;;;;;;46.63;19.02;;;;;;;18.71;83.58;92036.50;4977808;28;20031;-75
2022/05/23 06:53:46;;;;;;;39.22;16.88;;;;;;;18.91;83.12;92033.88;4981467;28;20046;-74
2022/05/23 06:56:43;;;;;;;40.42;17.20;;;;;;;19.23;82.57;92031.88;4958230;28;20045;-74
2022/05/23 06:59:13;;;;;;;45.25;16.58;;;;;;;19.59;80.17;92045.78;4975841;28;20043;-74
2022/05/23 07:01:44;;;;;;;37.70;16.92;;;;;;;19.76;78.88;92050.66;4971383;28;20081;-74
2022/05/23 07:13:01;;;;;;;33.60;16.08;;;;;;;20.66;75.55;92046.00;4967886;28;20066;-75
2022/05/23 07:15:37;;;;;;;38.08;15.75;;;;;;;20.98;75.84;92051.72;4979357;28;20022;-75
2022/05/23 07:18:04;;;;;;;54.95;16.65;;;;;;;21.25;73.86;92049.00;4976422;28;20050;-76
2022/05/23 07:20:42;;;;;;;39.70;16.63;;;;;;;21.50;75.87;92046.66;4962436;28;20396;-76
2022/05/23 07:23:17;;;;;;;40.22;17.80;;;;;;;21.64;76.10;92060.13;4959074;28;20449;-75
2022/05/23 07:25:47;;;;;;;48.92;19.40;;;;;;;21.81;75.91;92067.50;4960699;28;20492;-76
2022/05/23 07:28:14;;;;;;;48.15;18.02;;;;;;;22.03;73.94;92073.81;4940523;28;20492;-76
2022/05/23 07:30:40;;;;;;;41.53;18.73;;;;;;;22.00;73.96;92063.16;4978248;28;20096;-76
2022/05/23 07:33:06;;;;;;;36.17;18.33;;;;;;;22.19;72.29;92078.91;4972323;28;20492;-77
2022/05/23 07:36:00;;;;;;;49.42;18.98;;;;;;;22.38;72.22;92074.50;4970750;28;20057;-76
2022/05/23 07:38:28;;;;;;;47.77;19.43;;;;;;;22.48;69.69;92071.16;4970662;28;20062;-79
2022/05/23 07:40:58;;;;;;;52.33;19.83;;;;;;;22.69;68.82;92067.13;4971438;28;20077;-76
2022/05/23 07:43:28;;;;;;;50.23;20.77;;;;;;;22.81;70.76;92069.50;4967279;28;20502;-76
2022/05/23 07:46:00;;;;;;;63.25;23.48;;;;;;;22.15;73.93;92077.34;4969131;28;20302;-75
2022/05/23 07:48:27;;;;;;;49.22;20.85;;;;;;;22.08;75.21;92072.72;4970008;28;20040;-76
2022/05/23 07:50:55;;;;;;;51.28;20.98;;;;;;;22.15;75.69;92070.09;4985465;28;20034;-76
2022/05/23 08:01:48;;;;;;;52.92;22.63;;;;;;;21.41;77.11;92053.06;4986829;28;20047;-76
2022/05/23 08:04:14;;;;;;;54.10;21.75;;;;;;;21.48;79.13;92046.25;4955422;28;20513;-76
2022/05/23 08:06:44;;;;;;;46.47;22.50;;;;;;;21.69;76.43;92049.16;4987725;28;20382;-76
2022/05/23 08:09:12;;;;;;;46.30;18.13;;;;;;;21.58;76.30;92051.69;4968394;28;20089;-76
2022/05/23 08:11:48;;;;;;;42.90;20.95;;;;;;;21.52;76.67;92039.06;4980004;28;20578;-75
2022/05/23 08:14:15;;;;;;;47.13;22.08;;;;;;;21.47;77.50;92037.50;4972601;28;20408;-76
2022/05/23 08:16:54;;;;;;;48.88;20.17;;;;;;;21.42;76.23;92037.84;4971382;28;20489;-76
2022/05/23 08:19:40;;;;;;;58.78;23.40;;;;;;;21.40;77.46;92024.09;4956793;28;20030;-78
2022/05/23 08:22:17;;;;;;;45.92;22.35;;;;;;;21.52;74.97;92031.09;4968597;28;22283;-76
2022/05/23 08:24:52;;;;;;;48.28;24.85;;;;;;;21.55;75.57;92019.72;4968631;28;20366;-76
2022/05/23 08:27:20;;;;;;;55.85;23.92;;;;;;;21.84;73.40;92031.38;4977807;28;20052;-76
2022/05/23 08:29:47;;;;;;;58.35;23.67;;;;;;;21.68;72.90;92028.94;4968717;28;20046;-76
2022/05/23 08:32:15;;;;;;;49.60;23.48;;;;;;;21.94;73.77;92024.63;4953355;28;20045;-76
2022/05/23 08:34:54;;;;;;;44.20;21.70;;;;;;;22.21;72.86;92028.69;4969579;28;20042;-76
2022/05/23 08:37:19;;;;;;;45.55;22.95;;;;;;;22.54;71.11;92019.03;4968473;28;20043;-76
2022/05/23 08:39:47;;;;;;;55.05;21.52;;;;;;;22.45;72.99;92019.34;4968451;28;20047;-76
2022/05/23 08:42:51;;;;;;;45.30;17.80;;;;;;;22.43;70.84;92023.53;4970215;28;20031;-79
2022/05/23 08:45:30;;;;;;;50.20;21.75;;;;;;;22.45;70.96;92016.69;4967009;28;20038;-76
2022/05/23 08:48:24;;;;;;;51.53;24.80;;;;;;;22.50;70.18;92012.91;4969533;28;20130;-76
2022/05/23 08:51:15;;;;;;;40.58;21.55;;;;;;;22.39;71.08;92010.16;4967935;28;20548;-76
2022/05/23 08:54:11;;;;;;;58.35;23.48;;;;;;;22.34;70.63;92017.75;4959492;28;20034;-76
2022/05/23 08:56:56;;;;;;;49.15;21.02;;;;;;;22.32;72.43;92010.09;4982466;28;20047;-76
2022/05/23 08:59:47;;;;;;;41.72;21.15;;;;;;;22.33;72.41;92013.53;4943970;29;20039;-76
2022/05/23 09:02:30;;;;;;;64.30;24.30;;;;;;;22.01;70.92;92012.13;4955325;28;20050;-76
2022/05/23 09:05:04;;;;;;;54.35;23.23;;;;;;;22.27;72.46;92009.69;4955451;28;20465;-76
2022/05/23 09:07:39;;;;;;;52.22;20.52;;;;;;;22.28;71.69;92011.97;4969234;28;20034;-76
2022/05/23 09:10:11;;;;;;;57.45;24.70;;;;;;;22.32;71.38;92001.34;4969658;28;20031;-76
2022/05/23 09:12:36;;;;;;;;;;;;;;;22.24;72.64;92011.94;4971916;28;20477;-77
2022/05/23 09:15:02;;;;;;;49.67;22.00;;;;;;;22.01;71.45;92019.34;4957261;28;19924;-78
2022/05/23 09:17:32;;;;;;;41.85;20.33;;;;;;;22.06;71.12;92026.25;4973702;28;20114;-78
2022/05/23 09:20:12;;;;;;;44.28;21.70;;;;;;;22.02;72.64;92016.34;4973612;28;20110;-78
2022/05/23 09:22:47;;;;;;;51.45;23.27;;;;;;;22.09;70.97;92012.97;4964727;28;20635;-76
2022/05/23 09:25:19;;;;;;;49.90;23.40;;;;;;;22.48;71.56;92004.50;4970731;28;20038;-76
2022/05/23 09:28:22;;;;;;;53.42;23.33;;;;;;;22.86;70.33;92010.44;4969492;28;20062;-76
2022/05/23 09:31:11;;;;;;;51.03;23.02;;;;;;;22.99;68.11;92017.00;4971496;28;20085;-76
2022/05/23 09:33:46;;;;;;;56.10;25.58;;;;;;;22.94;67.56;92014.63;4971693;28;20038;-76
2022/05/23 09:36:36;;;;;;;58.13;26.45;;;;;;;23.11;69.14;92015.16;4971461;28;20483;-76
2022/05/23 09:39:08;;;;;;;62.85;29.35;;;;;;;23.13;69.20;92010.19;4990138;28;20598;-76
2022/05/23 09:47:46;;;;;;;73.35;31.95;;;;;;;22.08;73.54;92003.41;4958871;28;20455;-76
2022/05/23 09:50:25;;;;;;;75.10;34.83;;;;;;;22.03;73.79;92001.88;4973904;28;20471;-76
2022/05/23 09:52:56;;;;;;;77.95;33.55;;;;;;;21.89;74.92;92001.75;4969232;28;20039;-76
2022/05/23 09:55:34;;;;;;;68.85;33.78;;;;;;;21.64;74.87;92006.88;4988026;28;20463;-76
2022/05/23 09:58:08;;;;;;;81.72;36.22;;;;;;;21.44;75.84;92006.28;4994423;28;20030;-76
2022/05/23 10:00:37;;;;;;;81.15;37.65;;;;;;;21.53;76.10;92003.34;4981535;28;20049;-77
2022/05/23 10:03:18;;;;;;;83.15;32.63;;;;;;;21.71;75.01;92001.59;4973006;28;20415;-77
2022/05/23 10:05:49;;;;;;;84.38;41.63;;;;;;;21.55;74.46;92001.06;4974870;28;20039;-76
2022/05/23 10:08:31;;;;;;;105.10;45.70;;;;;;;21.47;75.27;92004.78;4978237;28;20033;-77
2022/05/23 10:11:03;;;;;;;85.95;40.15;;;;;;;21.39;74.69;92003.91;4973230;28;20039;-76
2022/05/23 10:13:40;;;;;;;99.53;43.78;;;;;;;21.42;74.68;92008.56;4972877;28;20039;-76
2022/05/23 10:16:08;;;;;;;94.40;41.90;;;;;;;21.53;74.99;91995.34;4974701;28;20049;-76
2022/05/23 10:19:03;;;;;;;89.80;40.67;;;;;;;21.24;75.75;92002.25;4973487;28;20030;-76
2022/05/23 10:21:31;;;;;;;108.75;49.00;;;;;;;21.08;77.13;92005.13;4954517;29;20051;-75
2022/05/23 10:24:02;;;;;;;107.28;47.85;;;;;;;21.01;76.41;92003.13;4968393;28;20038;-76
2022/05/23 10:26:30;;;;;;;119.00;47.83;;;;;;;21.24;76.77;91995.03;4974373;28;20489;-76
2022/05/23 10:29:17;;;;;;;110.20;47.95;;;;;;;21.52;74.25;91993.81;4974238;28;20170;-76
2022/05/23 10:31:55;;;;;;;105.20;45.17;;;;;;;21.86;74.02;91999.81;4965768;28;20034;-76
2022/05/23 10:34:45;;;;;;;103.90;45.38;;;;;;;21.95;72.45;91997.63;4976903;28;20120;-76
2022/05/23 10:37:36;;;;;;;111.32;46.75;;;;;;;22.28;71.44;92000.56;4966302;28;20055;-76
2022/05/23 10:42:55;;;;;;;89.68;40.95;;;;;;;21.94;72.81;92000.66;4971726;28;20034;-76
2022/05/23 10:45:22;;;;;;;90.20;42.88;;;;;;;21.72;75.52;91979.16;4963798;28;20062;-76
2022/05/23 10:47:56;;;;;;;95.85;40.97;;;;;;;22.09;73.97;91973.00;4971938;28;20039;-77
2022/05/23 10:50:54;;;;;;;85.28;37.75;;;;;;;22.34;73.50;91969.75;4972027;28;20073;-76
2022/05/23 10:53:49;;;;;;;87.18;39.13;;;;;;;22.08;72.82;91976.00;4970973;28;20129;-79
2022/05/23 10:56:33;;;;;;;94.38;41.42;;;;;;;21.91;74.23;91980.06;4957039;28;20500;-76
2022/05/23 10:59:08;;;;;;;99.35;40.38;;;;;;;21.70;74.50;91973.41;4967205;28;20075;-76
2022/05/23 11:01:56;;;;;;;83.40;37.22;;;;;;;21.68;75.96;91973.03;4983215;28;20031;-76
2022/05/23 11:04:51;;;;;;;83.93;41.65;;;;;;;21.50;75.95;91988.06;4972573;28;20405;-76
2022/05/23 11:07:38;;;;;;;94.72;44.38;;;;;;;21.45;75.62;91983.09;4972445;28;20125;-76
2022/05/23 11:10:20;;;;;;;81.70;39.47;;;;;;;21.81;74.04;91984.19;4956932;28;20093;-76
2022/05/23 11:12:57;;;;;;;81.00;36.15;;;;;;;22.05;73.50;91974.84;4973836;28;20060;-76
2022/05/23 11:15:45;;;;;;;75.00;33.85;;;;;;;22.36;72.23;91970.91;4973667;28;20035;-77
2022/05/23 11:18:32;;;;;;;66.53;32.08;;;;;;;22.39;72.69;91964.06;4971626;28;20117;-76
2022/05/23 11:21:03;;;;;;;93.40;31.55;;;;;;;22.18;71.73;91968.09;4973581;28;20044;-76
2022/05/23 11:23:36;;;;;;;58.47;30.27;;;;;;;22.26;72.80;91968.16;4973438;28;20031;-76
2022/05/23 11:26:08;;;;;;;72.10;32.45;;;;;;;21.81;72.70;91963.63;4973298;28;20051;-76
2022/05/23 11:34:35;;;;;;;58.70;25.48;;;;;;;22.30;71.84;91966.28;4953371;28;20412;-76
2022/05/23 11:39:52;;;;;;;62.35;26.25;;;;;;;22.41;68.79;91951.13;5009338;28;20113;-76
2022/05/23 11:43:11;;;;;;;72.82;31.67;;;;;;;22.05;70.56;91956.19;4959582;28;20497;-76
2022/05/23 11:45:57;;;;;;;65.10;28.55;;;;;;;21.80;71.22;91958.69;4975500;28;20109;-76
2022/05/23 11:48:40;;;;;;;64.90;25.98;;;;;;;21.72;72.29;91959.75;4992513;28;20046;-74
2022/05/23 11:51:14;;;;;;;56.22;26.17;;;;;;;21.99;70.13;91952.34;5003659;28;20034;-76
2022/05/23 11:54:03;;;;;;;53.97;25.58;;;;;;;21.81;70.00;91952.97;5011861;28;20038;-76
2022/05/23 11:57:10;;;;;;;60.53;26.23;;;;;;;21.85;70.31;91946.91;5011989;28;20100;-77
2022/05/23 11:59:35;;;;;;;55.88;24.30;;;;;;;22.12;70.05;91939.50;5011911;28;20034;-76
2022/05/23 12:02:07;;;;;;;40.92;18.25;;;;;;;22.35;68.14;91947.28;4990369;28;20505;-76
2022/05/23 12:04:55;;;;;;;;;;;;;;;22.08;67.59;91939.47;5012126;28;20124;-76
2022/05/23 12:07:42;;;;;;;36.88;17.63;;;;;;;21.83;68.80;91937.38;5000830;28;19963;-76
2022/05/23 12:10:22;;;;;;;62.20;22.42;;;;;;;21.81;67.90;91918.34;5011548;28;20384;-75
2022/05/23 12:12:50;;;;;;;42.78;20.13;;;;;;;21.86;68.70;91922.56;4980824;28;20066;-75
2022/05/23 12:15:43;;;;;;;40.92;19.10;;;;;;;21.44;68.68;91928.31;4992014;28;20026;-76
2022/05/23 12:18:12;;;;;;;55.72;17.58;;;;;;;21.55;68.11;91913.97;4958627;28;20408;-76
2022/05/23 12:20:47;;;;;;;53.90;21.17;;;;;;;21.64;68.39;91911.00;4974464;28;20415;-76
2022/05/23 12:23:29;;;;;;;45.70;17.80;;;;;;;21.69;68.83;91907.97;5001690;28;20029;-76
2022/05/23 12:26:23;;;;;;;39.25;18.17;;;;;;;21.56;68.94;91910.16;4993933;28;20484;-77
2022/05/23 12:28:55;;;;;;;47.20;20.13;;;;;;;21.10;70.01;91909.72;5011378;28;20252;-76
2022/05/23 12:31:27;;;;;;;47.20;20.50;;;;;;;21.14;69.37;91910.50;4993964;28;20041;-76
2022/05/23 12:34:08;;;;;;;41.25;19.00;;;;;;;20.92;69.69;91915.63;4999898;28;20042;-75
2022/05/23 12:36:38;;;;;;;42.55;18.25;;;;;;;20.94;70.49;91910.69;4991622;28;20041;-76
2022/05/23 12:39:42;;;;;;;42.72;19.15;;;;;;;20.78;70.72;91899.50;4974295;28;20539;-76
2022/05/23 12:42:17;;;;;;;69.72;18.75;;;;;;;20.87;70.87;91907.94;4991760;28;20038;-75
2022/05/23 12:45:28;;;;;;;46.28;19.35;;;;;;;20.59;71.92;91917.13;4983007;28;20120;-76
2022/05/23 12:47:56;;;;;;;37.85;18.83;;;;;;;20.65;72.67;91901.66;4962728;28;20045;-76